Terminal Aerodrome Forecast
Issued by NWS

Home | Current Version | Previous Version | Text Only | Print | Product List | Glossary On
Versions: 1 2 3 4 5 6 7 8 9 10 11 12 13 14 15 16
000
FTUS46 KLOX 261742
TAFPMD
TAF
KPMD 261742Z 2618/2718 31005KT P6SM SKC
     FM261900 28015G25KT P6SM BKN200
     FM262100 28025G32KT P6SM BKN200
     FM270500 28015G25KT P6SM BKN200=

USA.gov is the U.S. government's official web portal to all federal, state and local government web resources and services.